createdAt,value
2018-09-13T00:00:25.060Z,11.83
2018-09-13T00:02:56.514Z,12.77
2018-09-13T00:05:27.961Z,11.33
2018-09-13T00:08:00.157Z,11.33
2018-09-13T00:10:30.316Z,11.63
2018-09-13T00:13:01.546Z,12.03
2018-09-13T00:15:34.925Z,11.37
2018-09-13T00:18:06.385Z,11.13
2018-09-13T00:20:37.126Z,11.43
2018-09-13T00:23:08.356Z,11.27
2018-09-13T00:25:39.309Z,12.10
2018-09-13T00:28:10.657Z,12.40
2018-09-13T00:30:42.090Z,11.53
2018-09-13T00:33:13.393Z,11.87
2018-09-13T00:35:44.612Z,11.57
2018-09-13T00:38:15.566Z,11.37
2018-09-13T00:40:46.060Z,11.10
2018-09-13T00:43:17.242Z,11.60
2018-09-13T00:45:48.467Z,11.63
2018-09-13T00:48:19.913Z,11.13
2018-09-13T00:50:51.206Z,11.40
2018-09-13T00:53:22.527Z,11.03
2018-09-13T00:55:53.607Z,11.07
2018-09-13T00:58:24.546Z,10.63
2018-09-13T01:00:56.092Z,11.00
2018-09-13T01:03:27.581Z,11.97
2018-09-13T01:05:58.236Z,11.13
2018-09-13T01:08:29.638Z,11.77
2018-09-13T01:11:01.019Z,11.33
2018-09-13T01:13:31.572Z,11.50
2018-09-13T01:16:03.406Z,10.80
2018-09-13T01:18:34.956Z,11.73
2018-09-13T01:21:06.159Z,12.10
2018-09-13T01:23:37.493Z,11.43
2018-09-13T01:26:08.443Z,11.80
2018-09-13T01:28:40.578Z,12.07
2018-09-13T01:31:12.252Z,11.90
2018-09-13T01:33:43.440Z,11.93
2018-09-13T01:36:14.971Z,12.33
2018-09-13T01:38:46.520Z,11.90
2018-09-13T01:41:17.995Z,11.80
2018-09-13T01:43:49.478Z,12.43
2018-09-13T01:46:19.614Z,12.67
2018-09-13T01:48:50.608Z,13.27
2018-09-13T01:51:21.796Z,12.83
2018-09-13T01:53:53.805Z,11.90
2018-09-13T01:56:24.320Z,12.20
2018-09-13T01:58:55.686Z,13.23
2018-09-13T02:01:26.476Z,13.03
2018-09-13T02:03:57.953Z,12.90
2018-09-13T02:06:30.255Z,12.63
2018-09-13T02:09:01.806Z,12.33
2018-09-13T02:11:32.784Z,12.10
2018-09-13T02:14:04.218Z,12.50
2018-09-13T02:16:34.908Z,12.70
2018-09-13T02:19:05.241Z,12.37
2018-09-13T02:21:36.969Z,12.80
2018-09-13T02:24:08.984Z,12.70
2018-09-13T02:26:40.234Z,11.77
2018-09-13T02:29:11.076Z,11.97
2018-09-13T02:31:42.029Z,11.23
2018-09-13T02:34:13.235Z,11.80
2018-09-13T02:36:44.542Z,11.90
2018-09-13T02:39:15.855Z,12.33
2018-09-13T02:41:47.213Z,12.17
2018-09-13T02:44:19.030Z,11.17
2018-09-13T02:46:51.073Z,12.23
2018-09-13T02:49:22.656Z,14.27
2018-09-13T02:51:53.452Z,12.83
2018-09-13T02:54:24.337Z,15.60
2018-09-13T02:56:55.929Z,13.30
2018-09-13T02:59:27.193Z,12.00
2018-09-13T03:01:58.464Z,12.33
2018-09-13T03:04:29.506Z,12.43
2018-09-13T03:07:00.813Z,13.60
2018-09-13T03:09:31.132Z,13.20
2018-09-13T03:12:02.931Z,11.83
2018-09-13T03:14:34.077Z,12.63
2018-09-13T03:17:05.864Z,12.90
2018-09-13T03:19:37.407Z,13.67
2018-09-13T03:22:09.275Z,13.20
2018-09-13T03:24:40.893Z,13.60
2018-09-13T03:27:12.179Z,13.40
2018-09-13T03:29:44.284Z,12.83
2018-09-13T03:32:16.364Z,12.80
2018-09-13T03:34:48.385Z,12.77
2018-09-13T03:37:19.719Z,12.77
2018-09-13T03:39:51.588Z,12.70
2018-09-13T03:42:23.344Z,13.40
2018-09-13T03:44:55.156Z,12.50
2018-09-13T03:47:27.147Z,13.73
2018-09-13T03:49:59.011Z,15.33
2018-09-13T03:52:30.523Z,11.97
2018-09-13T03:55:01.950Z,12.43
2018-09-13T03:57:33.471Z,15.67
2018-09-13T04:00:04.846Z,14.27
2018-09-13T04:02:36.407Z,12.53
2018-09-13T04:05:07.683Z,13.37
2018-09-13T04:07:39.159Z,13.40
2018-09-13T04:10:10.917Z,12.77
2018-09-13T04:12:42.620Z,13.70
2018-09-13T04:15:14.142Z,17.00
2018-09-13T04:17:45.941Z,13.67
2018-09-13T04:20:17.322Z,13.00
2018-09-13T04:22:48.829Z,14.67
2018-09-13T04:25:19.028Z,13.83
2018-09-13T04:27:49.006Z,12.93
2018-09-13T04:30:19.240Z,13.27
2018-09-13T04:32:49.261Z,14.20
2018-09-13T04:35:19.363Z,13.17
2018-09-13T04:37:49.415Z,13.87
2018-09-13T04:40:19.533Z,15.17
2018-09-13T04:42:49.706Z,14.27
2018-09-13T04:45:19.678Z,14.73
2018-09-13T04:47:49.768Z,15.43
2018-09-13T04:50:20.152Z,16.83
2018-09-13T04:52:50.390Z,16.47
2018-09-13T04:55:20.494Z,15.00
2018-09-13T04:57:50.675Z,14.60
2018-09-13T05:00:21.086Z,14.97
2018-09-13T05:02:51.032Z,14.60
2018-09-13T05:05:21.149Z,14.67
2018-09-13T05:07:51.323Z,14.37
2018-09-13T05:10:21.382Z,12.93
2018-09-13T05:12:51.365Z,14.63
2018-09-13T05:15:21.598Z,14.20
2018-09-13T05:17:51.635Z,14.37
2018-09-13T05:20:21.822Z,13.70
2018-09-13T05:22:52.122Z,14.13
2018-09-13T05:25:22.278Z,14.30
2018-09-13T05:27:52.204Z,14.07
2018-09-13T05:30:22.335Z,14.83
2018-09-13T05:32:52.444Z,13.90
2018-09-13T05:35:22.593Z,14.30
2018-09-13T05:37:52.954Z,14.30
2018-09-13T05:40:23.288Z,14.97
2018-09-13T05:42:53.466Z,14.57
2018-09-13T05:45:23.494Z,14.93
2018-09-13T05:47:53.627Z,14.67
2018-09-13T05:50:23.738Z,13.70
2018-09-13T05:52:53.932Z,13.70
2018-09-13T05:55:24.244Z,13.57
2018-09-13T05:57:54.331Z,14.27
2018-09-13T06:00:24.608Z,13.33
2018-09-13T06:02:54.499Z,14.80
2018-09-13T06:05:24.675Z,13.30
2018-09-13T06:07:54.915Z,13.27
2018-09-13T06:10:25.285Z,12.97
2018-09-13T06:12:55.621Z,13.10
2018-09-13T06:15:25.909Z,20.43
2018-09-13T06:17:56.098Z,18.53
2018-09-13T06:20:26.483Z,12.53
2018-09-13T06:22:56.893Z,11.63
2018-09-13T06:25:26.932Z,12.07
2018-09-13T06:27:57.163Z,11.40
2018-09-13T06:30:27.154Z,11.00
2018-09-13T06:32:57.202Z,11.20
2018-09-13T06:35:27.341Z,11.53
2018-09-13T06:37:57.495Z,11.53
2018-09-13T06:40:27.482Z,12.90
2018-09-13T06:42:57.797Z,10.90
2018-09-13T06:45:27.972Z,10.80
2018-09-13T06:47:58.131Z,10.27
2018-09-13T06:50:28.270Z,10.47
2018-09-13T06:52:58.448Z,9.60
2018-09-13T06:55:28.593Z,9.87
2018-09-13T06:57:58.706Z,9.60
2018-09-13T07:00:28.949Z,10.10
2018-09-13T07:02:59.161Z,9.27
2018-09-13T07:05:29.183Z,11.00
2018-09-13T07:07:59.192Z,8.90
2018-09-13T07:10:29.422Z,9.63
2018-09-13T07:12:59.630Z,9.57
2018-09-13T07:15:29.741Z,9.37
2018-09-13T07:17:59.891Z,10.13
2018-09-13T07:20:29.997Z,8.97
2018-09-13T07:23:00.269Z,8.57
2018-09-13T07:25:30.310Z,8.37
2018-09-13T07:28:00.430Z,9.27
2018-09-13T07:30:30.624Z,7.70
2018-09-13T07:33:00.693Z,8.10
2018-09-13T07:35:30.923Z,9.00
2018-09-13T07:38:00.984Z,8.47
2018-09-13T07:40:31.084Z,8.77
2018-09-13T07:44:09.153Z,8.67
2018-09-13T07:46:39.379Z,8.17
2018-09-13T07:49:09.618Z,7.70
2018-09-13T07:51:39.770Z,8.07
2018-09-13T07:54:09.906Z,8.53
2018-09-13T07:56:39.958Z,8.13
2018-09-13T07:59:09.974Z,8.17
2018-09-13T08:01:40.195Z,9.37
2018-09-13T08:04:10.510Z,9.03
2018-09-13T08:06:42.849Z,7.70
2018-09-13T08:09:13.816Z,8.30
2018-09-13T08:11:44.128Z,6.80
2018-09-13T08:14:14.295Z,8.37
2018-09-13T08:16:44.360Z,7.57
2018-09-13T08:22:23.215Z,7.77
2018-09-13T08:27:48.180Z,7.50
2018-09-13T08:30:18.345Z,7.73
2018-09-13T08:32:48.406Z,8.17
2018-09-13T08:35:18.522Z,7.63
2018-09-13T08:37:48.519Z,7.67
2018-09-13T08:40:18.717Z,8.20
2018-09-13T08:42:49.058Z,7.20
2018-09-13T08:45:20.686Z,8.00
2018-09-13T08:47:50.848Z,7.50
2018-09-13T08:50:20.983Z,7.80
2018-09-13T08:52:51.219Z,7.33
2018-09-13T08:55:21.128Z,7.60
2018-09-13T08:57:51.178Z,7.27
2018-09-13T09:00:21.449Z,7.07
2018-09-13T09:02:51.762Z,7.63
2018-09-13T09:05:22.044Z,7.60
2018-09-13T09:07:52.256Z,6.83
2018-09-13T09:10:22.184Z,7.27
2018-09-13T09:12:52.407Z,7.27
2018-09-13T09:15:22.651Z,6.97
2018-09-13T09:17:52.743Z,6.97
2018-09-13T09:20:22.817Z,6.67
2018-09-13T09:22:53.082Z,6.83
2018-09-13T09:25:23.408Z,6.87
2018-09-13T09:27:53.598Z,6.57
2018-09-13T09:30:23.851Z,6.50
2018-09-13T09:32:53.851Z,6.53
2018-09-13T09:38:03.432Z,6.40
2018-09-13T09:40:33.497Z,6.27
2018-09-13T09:43:03.495Z,6.07
2018-09-13T09:45:33.838Z,6.20
2018-09-13T09:48:04.221Z,6.47
2018-09-13T09:50:34.295Z,6.20
2018-09-13T09:53:04.424Z,6.30
2018-09-13T09:55:34.628Z,6.10
2018-09-13T09:58:05.512Z,6.27
2018-09-13T10:00:40.506Z,7.20
2018-09-13T10:03:10.787Z,6.20
2018-09-13T10:05:40.793Z,6.63
2018-09-13T10:08:11.023Z,6.07
2018-09-13T10:10:41.056Z,6.20
2018-09-13T10:13:11.199Z,6.40
2018-09-13T10:15:46.491Z,6.70
2018-09-13T10:18:21.729Z,7.33
2018-09-13T10:20:56.875Z,6.17
2018-09-13T10:23:32.156Z,7.70
2018-09-13T10:26:07.588Z,9.50
2018-09-13T10:28:42.847Z,6.80
2018-09-13T10:31:18.073Z,6.83
2018-09-13T10:33:53.391Z,6.77
2018-09-13T10:36:28.585Z,6.70
2018-09-13T10:39:03.867Z,6.57
2018-09-13T10:41:39.106Z,6.87
2018-09-13T10:44:14.287Z,5.93
2018-09-13T10:46:44.485Z,5.80
2018-09-13T10:49:19.661Z,6.50
2018-09-13T10:51:54.804Z,6.73
2018-09-13T10:54:29.804Z,5.83
2018-09-13T10:57:04.711Z,6.60
2018-09-13T10:59:34.859Z,5.57
2018-09-13T11:02:05.364Z,5.70
2018-09-13T11:04:36.228Z,6.10
2018-09-13T11:07:06.649Z,5.57
2018-09-13T11:09:36.895Z,5.17
2018-09-13T11:12:07.707Z,5.27
2018-09-13T11:14:42.107Z,5.70
2018-09-13T11:17:12.145Z,6.07
2018-09-13T11:19:42.457Z,5.00
2018-09-13T11:22:12.555Z,5.50
2018-09-13T11:24:42.858Z,5.57
2018-09-13T11:27:12.930Z,5.80
2018-09-13T11:29:43.014Z,5.07
2018-09-13T11:32:13.718Z,5.33
2018-09-13T11:34:44.771Z,5.55
2018-09-13T11:37:15.091Z,5.17
2018-09-13T11:39:45.401Z,4.72
2018-09-13T11:42:15.407Z,5.03
2018-09-13T11:44:45.517Z,5.20
2018-09-13T11:47:15.784Z,4.80
2018-09-13T11:49:45.837Z,5.10
2018-09-13T11:52:15.884Z,6.73
2018-09-13T11:54:46.114Z,5.17
2018-09-13T11:57:16.321Z,4.70
2018-09-13T11:59:47.329Z,5.50
2018-09-13T12:02:17.415Z,5.20
2018-09-13T12:04:47.456Z,5.23
2018-09-13T12:07:17.642Z,5.47
2018-09-13T12:09:47.846Z,5.47
2018-09-13T12:12:17.920Z,5.47
2018-09-13T12:14:48.185Z,5.23
2018-09-13T12:17:18.459Z,5.10
2018-09-13T12:19:48.732Z,5.13
2018-09-13T12:22:19.756Z,5.20
2018-09-13T12:24:49.941Z,6.10
2018-09-13T12:27:20.162Z,5.67
2018-09-13T12:29:50.472Z,4.97
2018-09-13T12:32:20.682Z,5.33
2018-09-13T12:34:50.810Z,4.93
2018-09-13T12:37:21.049Z,5.07
2018-09-13T12:39:51.274Z,5.30
2018-09-13T12:42:21.421Z,4.90
2018-09-13T12:44:51.779Z,6.50
2018-09-13T12:47:21.925Z,5.27
2018-09-13T12:49:52.146Z,5.10
2018-09-13T12:52:22.359Z,5.90
2018-09-13T12:54:52.684Z,5.00
2018-09-13T12:57:22.880Z,5.20
2018-09-13T12:59:52.792Z,4.90
2018-09-13T13:02:22.908Z,5.17
2018-09-13T13:04:52.943Z,4.80
2018-09-13T13:07:23.011Z,4.90
2018-09-13T13:09:53.245Z,4.57
2018-09-13T13:12:23.366Z,4.77
2018-09-13T13:14:53.421Z,5.07
2018-09-13T13:17:23.675Z,5.10
2018-09-13T13:19:53.867Z,4.80
2018-09-13T13:22:23.929Z,4.87
2018-09-13T13:24:54.165Z,4.65
2018-09-13T13:27:24.228Z,5.03
2018-09-13T13:29:54.456Z,4.47
2018-09-13T13:32:24.726Z,4.60
2018-09-13T13:34:54.751Z,5.17
2018-09-13T13:37:25.017Z,4.90
2018-09-13T13:39:55.135Z,4.73
2018-09-13T13:42:25.342Z,4.90
2018-09-13T13:44:55.344Z,4.70
2018-09-13T13:47:25.454Z,4.30
2018-09-13T13:49:55.623Z,4.87
2018-09-13T13:52:25.784Z,4.60
2018-09-13T13:54:55.890Z,4.25
2018-09-13T13:57:25.841Z,4.17
2018-09-13T13:59:56.091Z,3.80
2018-09-13T14:02:26.352Z,3.70
2018-09-13T14:04:56.553Z,4.37
2018-09-13T14:07:26.700Z,4.20
2018-09-13T14:09:57.004Z,4.20
2018-09-13T14:12:27.078Z,4.00
2018-09-13T14:14:57.330Z,3.92
2018-09-13T14:17:27.584Z,3.92
2018-09-13T14:19:57.704Z,4.12
2018-09-13T14:22:27.914Z,4.30
2018-09-13T14:24:57.977Z,3.95
2018-09-13T14:27:28.077Z,4.53
2018-09-13T14:29:58.177Z,5.72
2018-09-13T14:32:28.316Z,4.50
2018-09-13T14:34:58.445Z,4.03
2018-09-13T14:37:28.605Z,3.60
2018-09-13T14:39:58.697Z,3.30
2018-09-13T14:42:28.902Z,3.15
2018-09-13T14:44:58.974Z,3.27
2018-09-13T14:47:29.075Z,3.50
2018-09-13T14:49:59.016Z,3.40
2018-09-13T14:52:29.156Z,3.10
2018-09-13T14:54:59.407Z,3.10
2018-09-13T14:57:29.872Z,3.37
2018-09-13T15:00:00.116Z,3.30
2018-09-13T15:02:30.193Z,3.25
2018-09-13T15:05:00.389Z,3.27
2018-09-13T15:07:30.270Z,3.10
2018-09-13T15:10:00.485Z,2.90
2018-09-13T15:12:30.575Z,3.33
2018-09-13T15:15:00.809Z,5.12
2018-09-13T15:17:30.694Z,4.10
2018-09-13T15:20:00.844Z,3.37
2018-09-13T15:22:31.019Z,3.37
2018-09-13T15:25:01.071Z,3.37
2018-09-13T15:27:31.080Z,3.40
2018-09-13T15:30:01.362Z,3.53
2018-09-13T15:32:31.749Z,3.40
2018-09-13T15:35:02.156Z,3.17
2018-09-13T15:37:32.293Z,4.20
2018-09-13T15:40:02.552Z,5.00
2018-09-13T15:42:32.760Z,4.23
2018-09-13T15:45:02.897Z,3.57
2018-09-13T15:47:32.903Z,4.20
2018-09-13T15:50:04.105Z,3.47
2018-09-13T15:52:34.306Z,3.50
2018-09-13T15:55:04.727Z,3.40
2018-09-13T15:57:34.801Z,4.63
2018-09-13T16:00:05.109Z,4.97
2018-09-13T16:02:35.476Z,5.03
2018-09-13T16:05:05.645Z,7.53
2018-09-13T16:07:35.565Z,5.33
2018-09-13T16:10:05.756Z,5.20
2018-09-13T16:12:37.207Z,5.30
2018-09-13T16:15:07.614Z,5.70
2018-09-13T16:17:37.870Z,5.57
2018-09-13T16:20:08.180Z,5.57
2018-09-13T16:22:38.381Z,5.13
2018-09-13T16:25:08.398Z,5.13
2018-09-13T16:27:38.426Z,7.03
2018-09-13T16:30:08.685Z,5.77
2018-09-13T16:32:38.866Z,5.20
2018-09-13T16:35:21.182Z,5.17
2018-09-13T16:38:08.288Z,4.37
2018-09-13T16:40:44.550Z,5.00
2018-09-13T16:43:16.140Z,4.30
2018-09-13T16:45:46.419Z,4.50
2018-09-13T16:48:16.649Z,4.47
2018-09-13T16:50:48.339Z,4.60
2018-09-13T16:53:18.540Z,4.90
2018-09-13T16:55:48.732Z,5.03
2018-09-13T16:58:18.847Z,4.37
2018-09-13T17:00:48.932Z,5.10
2018-09-13T17:03:19.139Z,4.93
2018-09-13T17:05:49.747Z,4.83
2018-09-13T17:08:20.038Z,4.53
2018-09-13T17:10:50.280Z,4.47
2018-09-13T17:13:20.387Z,4.33
2018-09-13T17:15:50.640Z,4.97
2018-09-13T17:18:20.687Z,5.30
2018-09-13T17:20:50.828Z,5.50
2018-09-13T17:23:20.972Z,5.50
2018-09-13T17:25:51.091Z,5.27
2018-09-13T17:28:21.277Z,5.60
2018-09-13T17:30:51.344Z,5.83
2018-09-13T17:33:21.454Z,5.70
2018-09-13T17:35:51.661Z,5.33
2018-09-13T17:38:21.506Z,5.57
2018-09-13T17:40:52.197Z,5.23
2018-09-13T17:43:22.455Z,6.57
2018-09-13T17:45:52.649Z,5.73
2018-09-13T17:48:23.229Z,6.83
2018-09-13T17:50:53.371Z,5.67
2018-09-13T17:53:23.414Z,5.53
2018-09-13T17:55:53.467Z,7.43
2018-09-13T17:58:23.612Z,5.97
2018-09-13T18:00:53.827Z,5.77
2018-09-13T18:03:24.070Z,5.57
2018-09-13T18:05:54.255Z,6.07
2018-09-13T18:08:24.233Z,6.33
2018-09-13T18:10:54.663Z,6.97
2018-09-13T18:13:25.198Z,6.07
2018-09-13T18:15:55.247Z,5.57
2018-09-13T18:18:25.371Z,6.30
2018-09-13T18:20:55.486Z,6.37
2018-09-13T18:23:25.494Z,6.27
2018-09-13T18:25:55.464Z,6.27
2018-09-13T18:28:25.402Z,6.10
2018-09-13T18:30:55.570Z,6.67
2018-09-13T18:33:25.605Z,6.83
2018-09-13T18:35:55.715Z,5.83
2018-09-13T18:38:25.770Z,6.70
2018-09-13T18:40:56.038Z,6.47
2018-09-13T18:43:26.123Z,7.07
2018-09-13T18:45:56.307Z,7.10
2018-09-13T18:48:26.567Z,7.20
2018-09-13T18:50:57.078Z,7.50
2018-09-13T18:53:27.365Z,8.03
2018-09-13T18:55:58.126Z,7.87
2018-09-13T18:58:28.402Z,7.80
2018-09-13T19:00:58.541Z,7.57
2018-09-13T19:03:28.738Z,8.00
2018-09-13T19:05:58.879Z,8.10
2018-09-13T19:08:28.948Z,7.80
2018-09-13T19:10:59.011Z,8.63
2018-09-13T19:13:28.975Z,7.77
2018-09-13T19:15:59.173Z,7.80
2018-09-13T19:18:29.059Z,7.47
2018-09-13T19:20:59.186Z,7.93
2018-09-13T19:23:29.224Z,6.63
2018-09-13T19:25:59.322Z,6.80
2018-09-13T19:28:29.315Z,7.33
2018-09-13T19:30:59.556Z,6.73
2018-09-13T19:33:29.565Z,6.67
2018-09-13T19:35:59.742Z,6.80
2018-09-13T19:38:29.946Z,6.60
2018-09-13T19:41:00.057Z,7.43
2018-09-13T19:43:30.125Z,7.50
2018-09-13T19:46:00.401Z,7.03
2018-09-13T19:48:30.411Z,6.67
2018-09-13T19:51:00.587Z,6.77
2018-09-13T19:53:30.593Z,6.93
2018-09-13T19:56:00.798Z,6.00
2018-09-13T19:58:30.989Z,7.83
2018-09-13T20:01:00.939Z,6.47
2018-09-13T20:03:31.036Z,6.60
2018-09-13T20:06:01.239Z,6.57
2018-09-13T20:08:31.446Z,6.47
2018-09-13T20:11:01.661Z,6.23
2018-09-13T20:13:31.825Z,6.47
2018-09-13T20:16:02.020Z,6.70
2018-09-13T20:18:32.121Z,7.10
2018-09-13T20:21:02.314Z,7.00
2018-09-13T20:23:32.390Z,7.23
2018-09-13T20:26:02.451Z,6.50
2018-09-13T20:28:32.530Z,7.30
2018-09-13T20:31:02.573Z,7.00
2018-09-13T20:33:32.683Z,7.23
2018-09-13T20:36:02.608Z,6.97
2018-09-13T20:38:32.747Z,7.63
2018-09-13T20:41:02.728Z,9.60
2018-09-13T20:43:32.564Z,7.70
2018-09-13T20:46:02.777Z,7.90
2018-09-13T20:48:32.915Z,7.43
2018-09-13T20:51:03.205Z,6.90
2018-09-13T20:53:33.280Z,7.37
2018-09-13T20:56:04.733Z,8.07
2018-09-13T20:58:35.931Z,7.73
2018-09-13T21:01:07.973Z,7.80
2018-09-13T21:03:39.179Z,8.07
2018-09-13T21:06:10.875Z,8.07
2018-09-13T21:08:42.995Z,7.37
2018-09-13T21:11:14.155Z,7.17
2018-09-13T21:13:46.181Z,7.77
2018-09-13T21:16:17.907Z,7.63
2018-09-13T21:18:48.355Z,7.97
2018-09-13T21:21:20.225Z,7.67
2018-09-13T21:23:51.710Z,8.13
2018-09-13T21:26:23.263Z,8.30
2018-09-13T21:28:54.890Z,8.43
2018-09-13T21:31:25.795Z,7.87
2018-09-13T21:33:57.223Z,8.57
2018-09-13T21:38:58.283Z,8.93
2018-09-13T21:41:29.907Z,8.90
2018-09-13T21:44:01.788Z,9.33
2018-09-13T21:46:33.009Z,8.87
2018-09-13T21:49:05.486Z,8.93
2018-09-13T21:51:36.959Z,8.60
2018-09-13T21:54:08.174Z,8.57
2018-09-13T21:56:39.678Z,9.33
2018-09-13T21:59:10.076Z,9.17
2018-09-13T22:01:41.469Z,9.43
2018-09-13T22:04:12.660Z,9.50
2018-09-13T22:06:43.911Z,9.00
2018-09-13T22:09:16.756Z,9.80
2018-09-13T22:11:48.078Z,9.33
2018-09-13T22:14:19.293Z,9.80
2018-09-13T22:16:50.640Z,9.60
2018-09-13T22:19:22.771Z,9.87
2018-09-13T22:21:54.239Z,9.17
2018-09-13T22:24:25.273Z,9.13
2018-09-13T22:26:56.242Z,8.67
2018-09-13T22:29:27.409Z,8.50
2018-09-13T22:31:58.673Z,8.57
2018-09-13T22:34:30.019Z,8.57
2018-09-13T22:37:01.051Z,9.03
2018-09-13T22:39:31.817Z,9.13
2018-09-13T22:42:02.731Z,8.90
2018-09-13T22:44:42.597Z,9.10
2018-09-13T22:47:13.776Z,10.00
2018-09-13T22:49:44.921Z,8.57
2018-09-13T22:52:16.095Z,10.00
2018-09-13T22:54:47.371Z,8.77
2018-09-13T22:57:18.487Z,9.77
2018-09-13T22:59:49.623Z,9.13
2018-09-13T23:02:20.873Z,9.47
2018-09-13T23:04:52.536Z,9.53
2018-09-13T23:07:23.151Z,9.63
2018-09-13T23:09:54.252Z,9.23
2018-09-13T23:12:25.325Z,9.93
2018-09-13T23:14:56.477Z,9.60
2018-09-13T23:17:27.872Z,10.17
2018-09-13T23:19:59.830Z,9.83
2018-09-13T23:22:31.117Z,9.60
2018-09-13T23:25:02.567Z,9.63
2018-09-13T23:27:33.189Z,10.63
2018-09-13T23:30:04.624Z,10.07
2018-09-13T23:32:36.772Z,9.97
2018-09-13T23:35:08.474Z,11.00
2018-09-13T23:37:38.982Z,10.27
2018-09-13T23:40:10.427Z,9.80
2018-09-13T23:42:41.916Z,9.40
2018-09-13T23:45:13.010Z,9.10
2018-09-13T23:47:45.006Z,9.70
2018-09-13T23:50:16.418Z,10.40
2018-09-13T23:52:47.722Z,9.90
2018-09-13T23:55:18.859Z,9.20
2018-09-13T23:57:49.854Z,9.00
